Vass, North Carolina
Current Conditions -  °F | °C
As of 8:35 AM on Wednesday 22 Oct 2014 (Local Time) from KSOP Reporting Station
Clear Clear  
Wind Chill:   Ceiling: Unl
Heat Index:   Visibility: 10mi
Dew Point:   Wind: 5mph
Humidity: 66%   Direction: 340°NNW
Pressure: 30"   Gusts: NA
Location:  35.26°N, 79.28°W
Report Text: KSOP 221235Z AUTO 34004KT 10SM CLR 09/03 A3000 RMK AO1
Loading
Personal Weather Stations






























Interactive Weather Map
Tropical Storm Tracking
New forecast layout! Learn more

10-Day Weather Forecast

Advertisements
Track Severe Weather on mobile